createdAt,value
2023-03-11T00:00:25.987Z,1.70
2023-03-11T00:02:57.019Z,1.70
2023-03-11T00:05:27.652Z,1.70
2023-03-11T00:07:56.244Z,1.70
2023-03-11T00:10:30.341Z,1.70
2023-03-11T00:12:58.605Z,1.70
2023-03-11T00:15:27.090Z,1.60
2023-03-11T00:17:55.600Z,1.60
2023-03-11T00:20:27.509Z,1.60
2023-03-11T00:22:56.265Z,1.50
2023-03-11T00:25:28.781Z,1.50
2023-03-11T00:27:57.103Z,1.50
2023-03-11T00:30:25.838Z,1.50
2023-03-11T00:32:55.717Z,1.40
2023-03-11T00:35:26.968Z,1.40
2023-03-11T00:37:56.821Z,1.40
2023-03-11T00:40:28.662Z,1.30
2023-03-11T00:42:57.136Z,1.30
2023-03-11T00:45:25.266Z,1.30
2023-03-11T00:47:53.783Z,1.20
2023-03-11T00:50:24.288Z,1.20
2023-03-11T00:52:53.183Z,1.20
2023-03-11T00:55:23.404Z,1.20
2023-03-11T00:57:54.825Z,1.20
2023-03-11T01:00:24.525Z,1.20
2023-03-11T01:02:54.480Z,1.20
2023-03-11T01:05:25.109Z,1.10
2023-03-11T01:07:53.329Z,1.10
2023-03-11T01:10:21.767Z,1.00
2023-03-11T01:12:49.889Z,1.00
2023-03-11T01:15:28.653Z,1.00
2023-03-11T01:17:56.978Z,1.10
2023-03-11T01:20:25.515Z,1.00
2023-03-11T01:22:53.612Z,0.90
2023-03-11T01:25:23.195Z,0.90
2023-03-11T01:27:51.292Z,0.90
2023-03-11T01:30:22.504Z,0.90
2023-03-11T01:32:51.336Z,0.80
2023-03-11T01:35:21.487Z,0.80
2023-03-11T01:37:49.644Z,0.80
2023-03-11T01:40:22.495Z,0.80
2023-03-11T01:42:50.561Z,0.80
2023-03-11T01:45:38.149Z,0.80
2023-03-11T01:48:06.405Z,0.80
2023-03-11T01:50:38.255Z,0.70
2023-03-11T01:53:07.604Z,0.70
2023-03-11T01:55:36.084Z,0.70
2023-03-11T01:58:08.851Z,0.70
2023-03-11T02:00:39.012Z,0.70
2023-03-11T02:03:12.177Z,0.70
2023-03-11T02:05:41.959Z,0.70
2023-03-11T02:08:10.618Z,0.70
2023-03-11T02:10:40.004Z,0.70
2023-03-11T02:13:09.203Z,0.60
2023-03-11T02:15:40.027Z,0.60
2023-03-11T02:18:09.419Z,0.60
2023-03-11T02:20:46.402Z,0.60
2023-03-11T02:23:15.422Z,0.60
2023-03-11T02:25:51.966Z,0.60
2023-03-11T02:28:22.593Z,0.50
2023-03-11T02:30:51.872Z,0.50
2023-03-11T02:33:20.782Z,0.50
2023-03-11T02:35:49.003Z,0.50
2023-03-11T02:38:17.093Z,0.50
2023-03-11T02:40:52.844Z,0.50
2023-03-11T02:43:25.860Z,0.50
2023-03-11T02:45:54.679Z,0.50
2023-03-11T02:48:24.011Z,0.50
2023-03-11T02:50:52.962Z,0.50
2023-03-11T02:53:21.149Z,0.50
2023-03-11T02:55:49.297Z,0.50
2023-03-11T02:58:17.473Z,0.40
2023-03-11T03:00:47.028Z,0.40
2023-03-11T03:03:15.854Z,0.40
2023-03-11T03:05:44.005Z,0.40
2023-03-11T03:08:12.043Z,0.40
2023-03-11T03:10:40.226Z,0.30
2023-03-11T03:13:08.940Z,0.30
2023-03-11T03:15:36.976Z,0.30
2023-03-11T03:18:06.773Z,0.30
2023-03-11T03:20:34.893Z,0.20
2023-03-11T03:23:02.975Z,0.20
2023-03-11T03:25:31.145Z,0.20
2023-03-11T03:27:59.169Z,0.20
2023-03-11T03:30:28.428Z,0.20
2023-03-11T03:32:56.666Z,0.10
2023-03-11T03:35:26.075Z,0.20
2023-03-11T03:37:56.980Z,0.10
2023-03-11T03:40:25.062Z,0.10
2023-03-11T03:42:53.140Z,0.10
2023-03-11T03:45:21.197Z,0.10
2023-03-11T03:47:49.295Z,0.00
2023-03-11T03:50:17.381Z,0.00
2023-03-11T03:52:46.818Z,0.00
2023-03-11T03:55:15.203Z,0.00
2023-03-11T03:57:43.523Z,0.00
2023-03-11T04:00:12.801Z,0.00
2023-03-11T04:02:40.921Z,0.00
2023-03-11T04:05:10.111Z,0.00
2023-03-11T04:07:38.274Z,0.00
2023-03-11T04:10:08.804Z,0.00
2023-03-11T04:12:37.019Z,-0.10
2023-03-11T04:15:05.955Z,-0.10
2023-03-11T04:17:34.041Z,-0.10
2023-03-11T04:20:02.132Z,-0.10
2023-03-11T04:22:30.208Z,-0.10
2023-03-11T04:24:58.227Z,-0.20
2023-03-11T04:27:27.732Z,-0.20
2023-03-11T04:29:55.828Z,-0.20
2023-03-11T04:32:24.946Z,-0.20
2023-03-11T04:34:53.108Z,-0.20
2023-03-11T04:37:21.185Z,-0.20
2023-03-11T04:39:53.359Z,-0.20
2023-03-11T04:42:21.427Z,-0.20
2023-03-11T04:44:50.912Z,-0.20
2023-03-11T04:47:18.996Z,-0.20
2023-03-11T04:49:47.060Z,-0.20
2023-03-11T04:52:15.201Z,-0.20
2023-03-11T04:54:43.255Z,-0.30
2023-03-11T04:57:11.338Z,-0.20
2023-03-11T04:59:39.662Z,-0.30
2023-03-11T05:02:11.714Z,-0.30
2023-03-11T05:04:40.892Z,-0.30
2023-03-11T05:07:08.985Z,-0.40
2023-03-11T05:09:37.125Z,-0.40
2023-03-11T05:12:05.873Z,-0.40
2023-03-11T05:14:33.994Z,-0.50
2023-03-11T05:17:02.069Z,-0.50
2023-03-11T05:19:35.602Z,-0.50
2023-03-11T05:22:04.248Z,-0.50
2023-03-11T05:24:32.892Z,-0.50
2023-03-11T05:27:01.983Z,-0.50
2023-03-11T05:29:30.113Z,-0.50
2023-03-11T05:31:58.303Z,-0.60
2023-03-11T05:34:26.481Z,-0.60
2023-03-11T05:36:55.975Z,-0.60
2023-03-11T05:39:24.111Z,-0.70
2023-03-11T05:41:52.106Z,-0.70
2023-03-11T05:44:20.211Z,-0.70
2023-03-11T05:46:48.381Z,-0.70
2023-03-11T05:49:16.450Z,-0.70
2023-03-11T05:51:44.573Z,-0.80
2023-03-11T05:54:15.213Z,-0.80
2023-03-11T05:56:44.794Z,-0.80
2023-03-11T05:59:16.371Z,-0.80
2023-03-11T06:01:45.207Z,-0.80
2023-03-11T06:04:13.729Z,-0.80
2023-03-11T06:06:42.523Z,-0.90
2023-03-11T06:09:14.615Z,-0.90
2023-03-11T06:11:43.516Z,-0.90
2023-03-11T06:14:12.999Z,-0.90
2023-03-11T06:16:41.720Z,-0.90
2023-03-11T06:19:10.531Z,-0.90
2023-03-11T06:21:38.584Z,-0.90
2023-03-11T06:24:07.278Z,-0.90
2023-03-11T06:26:36.800Z,-0.90
2023-03-11T06:29:04.899Z,-0.90
2023-03-11T06:31:33.231Z,-0.90
2023-03-11T06:34:02.382Z,-0.80
2023-03-11T06:36:30.740Z,-0.80
2023-03-11T06:38:58.793Z,-0.80
2023-03-11T06:41:26.918Z,-0.80
2023-03-11T06:43:59.687Z,-0.80
2023-03-11T06:46:27.826Z,-0.80
2023-03-11T06:48:56.059Z,-0.80
2023-03-11T06:51:24.149Z,-0.70
2023-03-11T06:53:52.879Z,-0.60
2023-03-11T06:56:21.978Z,-0.60
2023-03-11T06:58:50.393Z,-0.50
2023-03-11T07:01:21.511Z,-0.50
2023-03-11T07:03:50.953Z,-0.50
2023-03-11T07:06:20.825Z,-0.40
2023-03-11T07:08:50.412Z,-0.30
2023-03-11T07:11:20.797Z,-0.30
2023-03-11T07:13:49.144Z,-0.20
2023-03-11T07:16:20.993Z,-0.10
2023-03-11T07:18:50.610Z,0.00
2023-03-11T07:21:21.275Z,0.00
2023-03-11T07:23:52.803Z,0.20
2023-03-11T07:26:21.047Z,0.30
2023-03-11T07:28:49.397Z,0.30
2023-03-11T07:31:19.900Z,0.40
2023-03-11T07:33:49.461Z,0.50
2023-03-11T07:36:20.069Z,0.60
2023-03-11T07:38:48.619Z,0.70
2023-03-11T07:41:17.008Z,0.80
2023-03-11T07:43:45.936Z,0.90
2023-03-11T07:46:18.419Z,1.00
2023-03-11T07:48:47.113Z,1.10
2023-03-11T07:51:18.092Z,1.20
2023-03-11T07:53:46.179Z,1.40
2023-03-11T07:56:16.763Z,1.50
2023-03-11T07:58:45.936Z,1.60
2023-03-11T08:01:16.614Z,1.70
2023-03-11T08:03:45.906Z,1.80
2023-03-11T08:06:16.443Z,1.90
2023-03-11T08:08:44.991Z,2.10
2023-03-11T08:11:14.150Z,2.30
2023-03-11T08:13:44.707Z,2.40
2023-03-11T08:16:15.691Z,2.60
2023-03-11T08:18:44.157Z,2.80
2023-03-11T08:21:15.814Z,2.90
2023-03-11T08:23:47.122Z,3.00
2023-03-11T08:26:17.844Z,3.10
2023-03-11T08:28:46.075Z,3.30
2023-03-11T08:31:15.127Z,3.30
2023-03-11T08:33:44.181Z,3.40
2023-03-11T08:36:12.702Z,3.50
2023-03-11T08:38:40.870Z,3.60
2023-03-11T08:41:10.352Z,3.70
2023-03-11T08:43:38.899Z,3.70
2023-03-11T08:46:07.864Z,3.80
2023-03-11T08:48:38.304Z,3.90
2023-03-11T08:51:11.441Z,4.00
2023-03-11T08:53:39.641Z,4.10
2023-03-11T08:56:08.813Z,4.10
2023-03-11T08:58:38.395Z,4.10
2023-03-11T09:01:07.251Z,4.20
2023-03-11T09:03:36.288Z,4.30
2023-03-11T09:06:07.756Z,4.50
2023-03-11T09:08:36.268Z,4.60
2023-03-11T09:11:05.560Z,4.80
2023-03-11T09:13:33.928Z,4.80
2023-03-11T09:16:05.941Z,4.90
2023-03-11T09:18:34.284Z,5.10
2023-03-11T09:21:02.553Z,5.30
2023-03-11T09:23:31.852Z,5.60
2023-03-11T09:25:59.978Z,5.80
2023-03-11T09:28:28.014Z,5.90
2023-03-11T09:30:56.359Z,5.80
2023-03-11T09:33:25.989Z,5.70
2023-03-11T09:35:54.138Z,5.70
2023-03-11T09:38:22.337Z,5.80
2023-03-11T09:41:00.742Z,5.80
2023-03-11T09:43:52.850Z,5.80
2023-03-11T09:46:43.528Z,6.00
2023-03-11T09:49:22.200Z,5.90
2023-03-11T09:51:55.058Z,6.10
2023-03-11T09:54:23.277Z,6.40
2023-03-11T09:56:51.847Z,6.30
2023-03-11T09:59:27.736Z,6.30
2023-03-11T10:01:57.045Z,6.30
2023-03-11T10:04:31.519Z,6.20
2023-03-11T10:07:02.340Z,6.40
2023-03-11T10:09:39.358Z,6.40
2023-03-11T10:12:19.873Z,6.50
2023-03-11T10:15:05.095Z,6.40
2023-03-11T10:18:08.030Z,6.30
2023-03-11T10:20:47.496Z,6.20
2023-03-11T10:23:25.740Z,6.00
2023-03-11T10:26:01.207Z,6.10
2023-03-11T10:28:34.437Z,6.30
2023-03-11T10:31:08.245Z,6.70
2023-03-11T10:33:41.971Z,6.70
2023-03-11T10:36:17.326Z,6.70
2023-03-11T10:38:48.771Z,6.70
2023-03-11T10:41:21.157Z,6.30
2023-03-11T10:43:55.662Z,6.20
2023-03-11T10:46:27.142Z,6.20
2023-03-11T10:48:55.291Z,6.20
2023-03-11T10:51:26.960Z,6.00
2023-03-11T10:53:56.714Z,6.00
2023-03-11T10:56:32.879Z,6.20
2023-03-11T10:59:02.419Z,6.20
2023-03-11T11:01:31.245Z,6.40
2023-03-11T11:04:01.890Z,6.20
2023-03-11T11:06:33.399Z,6.20
2023-03-11T11:09:19.339Z,6.70
2023-03-11T11:12:03.376Z,6.70
2023-03-11T11:14:50.108Z,6.70
2023-03-11T11:17:20.882Z,6.80
2023-03-11T11:19:50.925Z,7.00
2023-03-11T11:22:22.561Z,7.30
2023-03-11T11:24:53.254Z,7.40
2023-03-11T11:27:23.308Z,7.50
2023-03-11T11:30:15.229Z,7.60
2023-03-11T11:32:43.592Z,7.70
2023-03-11T11:35:14.589Z,7.70
2023-03-11T11:37:47.309Z,7.90
2023-03-11T11:40:29.743Z,8.00
2023-03-11T11:43:01.487Z,8.20
2023-03-11T11:45:36.634Z,8.10
2023-03-11T11:48:13.417Z,8.10
2023-03-11T11:50:45.914Z,8.10
2023-03-11T11:53:25.783Z,8.30
2023-03-11T11:55:54.444Z,8.20
2023-03-11T11:58:22.972Z,8.30
2023-03-11T12:01:14.506Z,8.50
2023-03-11T12:04:23.453Z,8.60
2023-03-11T12:07:02.166Z,8.30
2023-03-11T12:09:37.832Z,8.60
2023-03-11T12:12:14.292Z,8.60
2023-03-11T12:14:47.574Z,8.80
2023-03-11T12:17:20.252Z,8.50
2023-03-11T12:19:53.164Z,8.80
2023-03-11T12:22:55.181Z,9.10
2023-03-11T12:25:33.945Z,9.20
2023-03-11T12:28:12.447Z,9.00
2023-03-11T12:30:45.037Z,9.20
2023-03-11T12:33:18.257Z,9.20
2023-03-11T12:35:53.739Z,9.30
2023-03-11T12:38:29.466Z,9.40
2023-03-11T12:41:05.796Z,9.70
2023-03-11T12:44:11.470Z,9.70
2023-03-11T12:47:04.355Z,9.70
2023-03-11T12:49:33.481Z,9.70
2023-03-11T12:52:17.280Z,9.50
2023-03-11T12:54:46.687Z,9.80
2023-03-11T12:57:35.720Z,9.90
2023-03-11T13:00:30.528Z,9.70
2023-03-11T13:03:33.237Z,10.00
2023-03-11T13:06:15.952Z,10.20
2023-03-11T13:08:48.100Z,10.50
2023-03-11T13:11:38.634Z,10.20
2023-03-11T13:14:27.452Z,10.40
2023-03-11T13:16:55.946Z,10.70
2023-03-11T13:19:52.000Z,10.80
2023-03-11T13:23:08.784Z,10.40
2023-03-11T13:25:41.832Z,10.50
2023-03-11T13:28:35.085Z,10.30
2023-03-11T13:31:17.969Z,10.40
2023-03-11T13:33:54.358Z,10.00
2023-03-11T13:36:49.818Z,10.40
2023-03-11T13:39:42.464Z,10.30
2023-03-11T13:42:25.111Z,10.30
2023-03-11T13:44:53.388Z,10.20
2023-03-11T13:47:23.151Z,10.20
2023-03-11T13:49:55.742Z,10.20
2023-03-11T13:52:28.277Z,10.50
2023-03-11T13:55:02.026Z,10.00
2023-03-11T13:57:31.868Z,9.90
2023-03-11T14:00:16.729Z,9.90
2023-03-11T14:02:51.014Z,9.70
2023-03-11T14:05:22.255Z,9.40
2023-03-11T14:07:50.462Z,9.30
2023-03-11T14:10:27.985Z,9.40
2023-03-11T14:13:17.251Z,9.60
2023-03-11T14:15:58.271Z,9.60
2023-03-11T14:18:36.871Z,9.90
2023-03-11T14:21:07.100Z,9.60
2023-03-11T14:23:40.532Z,9.50
2023-03-11T14:26:13.264Z,9.60
2023-03-11T14:28:45.229Z,9.10
2023-03-11T14:31:25.937Z,9.20
2023-03-11T14:34:04.367Z,9.10
2023-03-11T14:36:41.364Z,8.80
2023-03-11T14:39:27.800Z,9.10
2023-03-11T14:42:00.578Z,9.10
2023-03-11T14:44:30.479Z,8.80
2023-03-11T14:47:12.724Z,8.80
2023-03-11T14:49:43.473Z,9.00
2023-03-11T14:52:19.589Z,8.80
2023-03-11T14:54:49.527Z,8.80
2023-03-11T14:57:23.761Z,8.80
2023-03-11T14:59:54.208Z,8.90
2023-03-11T15:02:40.731Z,8.70
2023-03-11T15:05:17.686Z,8.60
2023-03-11T15:07:46.662Z,8.50
2023-03-11T15:10:15.475Z,8.40
2023-03-11T15:12:45.294Z,8.30
2023-03-11T15:15:23.978Z,8.30
2023-03-11T15:17:56.684Z,8.20
2023-03-11T15:20:29.383Z,8.20
2023-03-11T15:23:01.114Z,8.10
2023-03-11T15:25:31.992Z,8.00
2023-03-11T15:28:00.124Z,8.00
2023-03-11T15:30:30.404Z,7.90
2023-03-11T15:32:59.853Z,7.90
2023-03-11T15:35:30.801Z,7.90
2023-03-11T15:38:25.450Z,7.90
2023-03-11T15:40:55.658Z,7.80
2023-03-11T15:43:30.022Z,7.80
2023-03-11T15:45:59.952Z,7.80
2023-03-11T15:48:29.919Z,7.70
2023-03-11T15:51:00.791Z,7.70
2023-03-11T15:53:30.410Z,7.70
2023-03-11T15:56:07.446Z,7.70
2023-03-11T15:58:38.136Z,7.60
2023-03-11T16:01:06.605Z,7.50
2023-03-11T16:03:34.770Z,7.50
2023-03-11T16:06:05.438Z,7.40
2023-03-11T16:08:34.772Z,7.40
2023-03-11T16:11:02.829Z,7.30
2023-03-11T16:13:30.845Z,7.20
2023-03-11T16:15:59.031Z,7.10
2023-03-11T16:18:27.268Z,7.10
2023-03-11T16:20:56.304Z,7.10
2023-03-11T16:23:28.199Z,7.00
2023-03-11T16:25:59.657Z,7.00
2023-03-11T16:28:28.274Z,7.00
2023-03-11T16:30:56.799Z,6.90
2023-03-11T16:33:24.980Z,6.80
2023-03-11T16:35:53.068Z,6.80
2023-03-11T16:38:23.118Z,6.80
2023-03-11T16:40:58.321Z,6.70
2023-03-11T16:43:27.152Z,6.70
2023-03-11T16:45:55.576Z,6.60
2023-03-11T16:48:24.286Z,6.50
2023-03-11T16:50:52.381Z,6.40
2023-03-11T16:53:20.506Z,6.40
2023-03-11T16:55:49.147Z,6.40
2023-03-11T16:58:18.610Z,6.40
2023-03-11T17:00:47.389Z,6.30
2023-03-11T17:03:18.268Z,6.30
2023-03-11T17:05:49.643Z,6.20
2023-03-11T17:08:18.401Z,6.20
2023-03-11T17:10:47.313Z,6.10
2023-03-11T17:13:18.833Z,6.00
2023-03-11T17:15:58.276Z,6.00
2023-03-11T17:18:26.402Z,6.00
2023-03-11T17:20:54.776Z,6.00
2023-03-11T17:23:23.271Z,5.80
2023-03-11T17:25:51.344Z,5.80
2023-03-11T17:28:19.499Z,5.80
2023-03-11T17:30:48.944Z,5.70
2023-03-11T17:33:16.992Z,5.70
2023-03-11T17:35:45.129Z,5.60
2023-03-11T17:38:15.422Z,5.60
2023-03-11T17:40:44.483Z,5.50
2023-03-11T17:43:12.546Z,5.40
2023-03-11T17:45:40.838Z,5.30
2023-03-11T17:48:10.266Z,5.20
2023-03-11T17:50:39.589Z,5.10
2023-03-11T17:53:08.273Z,5.10
2023-03-11T17:55:41.224Z,5.00
2023-03-11T17:58:09.513Z,5.00
2023-03-11T18:00:37.747Z,4.90
2023-03-11T18:03:05.925Z,4.80
2023-03-11T18:05:37.652Z,4.80
2023-03-11T18:08:06.064Z,4.70
2023-03-11T18:10:34.240Z,4.70
2023-03-11T18:13:02.340Z,4.60
2023-03-11T18:15:30.404Z,4.60
2023-03-11T18:17:58.533Z,4.50
2023-03-11T18:20:26.719Z,4.40
2023-03-11T18:22:56.256Z,4.30
2023-03-11T18:25:24.312Z,4.20
2023-03-11T18:27:52.936Z,4.10
2023-03-11T18:30:21.211Z,4.10
2023-03-11T18:32:49.488Z,4.00
2023-03-11T18:35:17.742Z,4.00
2023-03-11T18:37:46.690Z,3.90
2023-03-11T18:40:16.442Z,3.90
2023-03-11T18:42:44.530Z,3.80
2023-03-11T18:45:13.944Z,3.80
2023-03-11T18:47:42.027Z,3.80
2023-03-11T18:50:11.642Z,3.80
2023-03-11T18:52:39.826Z,3.90
2023-03-11T18:55:08.358Z,3.90
2023-03-11T18:57:40.314Z,3.90
2023-03-11T19:00:09.706Z,3.80
2023-03-11T19:02:37.905Z,3.80
2023-03-11T19:05:06.949Z,3.80
2023-03-11T19:07:35.110Z,3.80
2023-03-11T19:10:03.339Z,3.80
2023-03-11T19:12:33.704Z,3.80
2023-03-11T19:15:03.485Z,3.70
2023-03-11T19:17:31.528Z,3.70
2023-03-11T19:19:59.593Z,3.70
2023-03-11T19:22:27.697Z,3.70
2023-03-11T19:24:55.780Z,3.70
2023-03-11T19:27:23.814Z,3.70
2023-03-11T19:29:51.911Z,3.70
2023-03-11T19:32:21.407Z,3.70
2023-03-11T19:34:49.581Z,3.70
2023-03-11T19:37:18.140Z,3.60
2023-03-11T19:39:46.342Z,3.50
2023-03-11T19:42:14.680Z,3.40
2023-03-11T19:44:42.807Z,3.30
2023-03-11T19:47:11.233Z,3.20
2023-03-11T19:49:40.730Z,3.20
2023-03-11T19:52:09.881Z,3.10
2023-03-11T19:54:37.937Z,3.00
2023-03-11T19:57:06.135Z,3.00
2023-03-11T19:59:34.300Z,2.80
2023-03-11T20:02:02.963Z,2.70
2023-03-11T20:04:31.069Z,2.70
2023-03-11T20:07:00.673Z,2.60
2023-03-11T20:09:28.747Z,2.60
2023-03-11T20:11:56.858Z,2.60
2023-03-11T20:14:24.922Z,2.60
2023-03-11T20:16:53.011Z,2.50
2023-03-11T20:19:21.225Z,2.50
2023-03-11T20:21:49.357Z,2.50
2023-03-11T20:24:18.937Z,2.50
2023-03-11T20:26:48.814Z,2.50
2023-03-11T20:29:18.734Z,2.50
2023-03-11T20:31:47.156Z,2.50
2023-03-11T20:34:15.348Z,2.50
2023-03-11T20:36:43.586Z,2.40
2023-03-11T20:39:11.781Z,2.40
2023-03-11T20:41:41.913Z,2.50
2023-03-11T20:44:12.785Z,2.50
2023-03-11T20:46:41.281Z,2.40
2023-03-11T20:49:09.535Z,2.40
2023-03-11T20:51:41.020Z,2.40
2023-03-11T20:54:09.537Z,2.40
2023-03-11T20:56:37.645Z,2.40
2023-03-11T20:59:07.694Z,2.40
2023-03-11T21:01:37.495Z,2.40
2023-03-11T21:04:05.999Z,2.30
2023-03-11T21:06:36.232Z,2.40
2023-03-11T21:09:07.445Z,2.40
2023-03-11T21:11:35.741Z,2.50
2023-03-11T21:14:04.347Z,2.50
2023-03-11T21:16:34.048Z,2.50
2023-03-11T21:19:05.382Z,2.60
2023-03-11T21:21:33.675Z,2.60
2023-03-11T21:24:01.801Z,2.60
2023-03-11T21:26:30.121Z,2.50
2023-03-11T21:28:58.323Z,2.50
2023-03-11T21:31:29.232Z,2.50
2023-03-11T21:34:01.155Z,2.40
2023-03-11T21:36:30.013Z,2.40
2023-03-11T21:38:58.166Z,2.40
2023-03-11T21:41:27.924Z,2.40
2023-03-11T21:43:57.956Z,2.40
2023-03-11T21:46:28.151Z,2.40
2023-03-11T21:48:58.378Z,2.30
2023-03-11T21:51:27.619Z,2.30
2023-03-11T21:53:56.372Z,2.30
2023-03-11T21:56:24.794Z,2.30
2023-03-11T21:58:53.880Z,2.20
2023-03-11T22:01:22.187Z,2.30
2023-03-11T22:03:50.633Z,2.30
2023-03-11T22:06:20.313Z,2.40
2023-03-11T22:08:48.813Z,2.40
2023-03-11T22:11:19.461Z,2.40
2023-03-11T22:13:50.023Z,2.40
2023-03-11T22:16:19.080Z,2.50
2023-03-11T22:18:47.504Z,2.50
2023-03-11T22:21:16.461Z,2.50
2023-03-11T22:23:46.431Z,2.50
2023-03-11T22:26:16.505Z,2.50
2023-03-11T22:28:44.973Z,2.60
2023-03-11T22:31:15.766Z,2.60
2023-03-11T22:33:43.887Z,2.60
2023-03-11T22:36:12.018Z,2.60
2023-03-11T22:38:42.236Z,2.60
2023-03-11T22:41:12.104Z,2.50
2023-03-11T22:43:40.654Z,2.50
2023-03-11T22:46:08.827Z,2.50
2023-03-11T22:48:37.124Z,2.50
2023-03-11T22:51:06.031Z,2.50
2023-03-11T22:53:34.093Z,2.50
2023-03-11T22:56:07.181Z,2.50
2023-03-11T22:58:36.886Z,2.50
2023-03-11T23:01:06.011Z,2.50
2023-03-11T23:03:35.375Z,2.60
2023-03-11T23:06:05.628Z,2.60
2023-03-11T23:08:33.958Z,2.60
2023-03-11T23:11:04.159Z,2.70
2023-03-11T23:13:33.962Z,2.80
2023-03-11T23:16:07.287Z,2.80
2023-03-11T23:18:35.987Z,2.90
2023-03-11T23:21:04.429Z,2.90
2023-03-11T23:23:32.544Z,3.00
2023-03-11T23:26:00.622Z,2.90
2023-03-11T23:28:28.730Z,2.90
2023-03-11T23:30:56.786Z,3.10
2023-03-11T23:33:26.286Z,3.10
2023-03-11T23:35:54.423Z,3.10
2023-03-11T23:38:22.522Z,3.00
2023-03-11T23:40:50.604Z,3.10
2023-03-11T23:43:18.653Z,3.10
2023-03-11T23:45:47.066Z,3.10
2023-03-11T23:48:15.601Z,3.00
2023-03-11T23:50:47.713Z,3.00
2023-03-11T23:53:17.853Z,3.10
2023-03-11T23:55:45.903Z,3.10
2023-03-11T23:58:14.009Z,3.10
